Ironside, Oregon
Current Conditions -  °F | °C
As of 7:53 AM on Friday 31 Oct 2014 (Local Time) from KBKE Reporting Station
Clear Clear  
Wind Chill: 52°   Ceiling: Unl
Heat Index: 52°   Visibility: 10mi
Dew Point: 34°   Wind: 9mph
Humidity: 50%   Direction: 150°SSE
Pressure: 29.76"   Gusts: NA
Location:  44.32°N, 117.95°W
Report Text: KBKE 311353Z AUTO 15008KT 10SM CLR 11/01 A2976 RMK AO2 SLP071 T01110011
Loading
Personal Weather Stations






























Interactive Weather Map
Tropical Storm Tracking
New forecast layout! Learn more

10-Day Weather Forecast

Advertisements
Track Severe Weather on mobile